Pine Knoll Shores, North Carolina
Current Conditions -  °F | °C
As of 9:58 AM on Friday 24 Oct 2014 (Local Time) from KMRH Reporting Station
Clear Clear  
Wind Chill: 59°   Ceiling: Unl
Heat Index: 59°   Visibility: 10mi
Dew Point: 48°   Wind: 14mph
Humidity: 67%   Direction: 10°N
Pressure: 30.02"   Gusts: NA
Location:  34.6984°N, 76.7775°W
Report Text: KMRH 241358Z AUTO 01012KT 10SM CLR 15/09 A3002 RMK AO2 SLP165 T01500089 TSNO
Loading
Personal Weather Stations






























Interactive Weather Map
Tropical Storm Tracking
New forecast layout! Learn more

10-Day Weather Forecast

Advertisements
Track Severe Weather on mobile